sensor_id;sensor_type;location;lat;lon;timestamp;pressure;altitude;pressure_sealevel;temperature;humidity
61506;BME280;47366;51.916;4.574;2022-11-23T00:01:18;99596.13;;;7.85;99.27
61506;BME280;47366;51.916;4.574;2022-11-23T00:03:45;99596.13;;;7.85;99.53
61506;BME280;47366;51.916;4.574;2022-11-23T00:06:11;99597.63;;;7.89;99.37
61506;BME280;47366;51.916;4.574;2022-11-23T00:08:36;99601.19;;;7.90;99.08
61506;BME280;47366;51.916;4.574;2022-11-23T00:11:02;99602.16;;;7.88;99.41
61506;BME280;47366;51.916;4.574;2022-11-23T00:13:27;99604.75;;;7.90;99.34
61506;BME280;47366;51.916;4.574;2022-11-23T00:15:53;99606.59;;;7.90;99.46
61506;BME280;47366;51.916;4.574;2022-11-23T00:18:18;99621.69;;;7.92;98.96
61506;BME280;47366;51.916;4.574;2022-11-23T00:20:44;99620.91;;;7.90;99.63
61506;BME280;47366;51.916;4.574;2022-11-23T00:23:09;99617.16;;;7.93;99.51
61506;BME280;47366;51.916;4.574;2022-11-23T00:25:34;99624.28;;;7.94;99.31
61506;BME280;47366;51.916;4.574;2022-11-23T00:28:00;99618.75;;;7.95;99.38
61506;BME280;47366;51.916;4.574;2022-11-23T00:30:26;99626.84;;;7.95;99.18
61506;BME280;47366;51.916;4.574;2022-11-23T00:32:54;99637.53;;;7.97;99.29
61506;BME280;47366;51.916;4.574;2022-11-23T00:35:19;99644.53;;;7.99;99.16
61506;BME280;47366;51.916;4.574;2022-11-23T00:37:45;99642.72;;;8.00;99.61
61506;BME280;47366;51.916;4.574;2022-11-23T00:40:11;99640.09;;;7.98;99.48
61506;BME280;47366;51.916;4.574;2022-11-23T00:42:36;99635.47;;;8.00;99.66
61506;BME280;47366;51.916;4.574;2022-11-23T00:45:02;99642.59;;;8.01;99.57
61506;BME280;47366;51.916;4.574;2022-11-23T00:47:27;99641.75;;;8.01;99.76
61506;BME280;47366;51.916;4.574;2022-11-23T00:49:52;99636.47;;;7.99;99.99
61506;BME280;47366;51.916;4.574;2022-11-23T00:52:18;99637.22;;;8.01;99.77
61506;BME280;47366;51.916;4.574;2022-11-23T00:54:43;99640.00;;;8.00;99.90
61506;BME280;47366;51.916;4.574;2022-11-23T00:57:08;99631.06;;;7.99;99.50
61506;BME280;47366;51.916;4.574;2022-11-23T00:59:34;99640.75;;;8.02;99.63
61506;BME280;47366;51.916;4.574;2022-11-23T01:01:59;99637.97;;;8.03;99.66
61506;BME280;47366;51.916;4.574;2022-11-23T01:04:24;99638.94;;;8.02;99.79
61506;BME280;47366;51.916;4.574;2022-11-23T01:06:54;99633.66;;;8.01;99.63
61506;BME280;47366;51.916;4.574;2022-11-23T01:09:20;99626.53;;;8.00;99.68
61506;BME280;47366;51.916;4.574;2022-11-23T01:11:49;99633.00;;;7.97;99.25
61506;BME280;47366;51.916;4.574;2022-11-23T01:14:14;99635.78;;;7.96;99.74
61506;BME280;47366;51.916;4.574;2022-11-23T01:16:41;99637.84;;;7.92;99.84
61506;BME280;47366;51.916;4.574;2022-11-23T01:19:09;99646.03;;;7.91;99.57
61506;BME280;47366;51.916;4.574;2022-11-23T01:21:36;99643.56;;;7.87;99.61
61506;BME280;47366;51.916;4.574;2022-11-23T01:24:13;99652.41;;;7.90;99.74
61506;BME280;47366;51.916;4.574;2022-11-23T01:26:40;99646.38;;;7.86;99.88
61506;BME280;47366;51.916;4.574;2022-11-23T01:29:05;99658.88;;;7.87;100.00
61506;BME280;47366;51.916;4.574;2022-11-23T01:31:31;99657.28;;;7.84;100.00
61506;BME280;47366;51.916;4.574;2022-11-23T01:33:58;99649.06;;;7.86;99.90
61506;BME280;47366;51.916;4.574;2022-11-23T01:36:27;99658.75;;;7.88;99.75
61506;BME280;47366;51.916;4.574;2022-11-23T01:38:54;99658.75;;;7.88;99.63
61506;BME280;47366;51.916;4.574;2022-11-23T01:41:22;99657.81;;;7.90;99.68
61506;BME280;47366;51.916;4.574;2022-11-23T01:43:48;99658.88;;;7.87;99.47
61506;BME280;47366;51.916;4.574;2022-11-23T01:46:14;99666.00;;;7.88;99.70
61506;BME280;47366;51.916;4.574;2022-11-23T01:48:44;99667.94;;;7.86;99.63
61506;BME280;47366;51.916;4.574;2022-11-23T01:51:14;99675.06;;;7.87;99.49
61506;BME280;47366;51.916;4.574;2022-11-23T01:53:40;99669.13;;;7.82;99.60
61506;BME280;47366;51.916;4.574;2022-11-23T01:56:07;99664.69;;;7.81;99.54
61506;BME280;47366;51.916;4.574;2022-11-23T01:58:37;99668.47;;;7.78;99.64
61506;BME280;47366;51.916;4.574;2022-11-23T02:01:05;99666.53;;;7.80;99.42
61506;BME280;47366;51.916;4.574;2022-11-23T02:03:31;99667.59;;;7.78;99.38
61506;BME280;47366;51.916;4.574;2022-11-23T02:06:02;99659.75;;;7.75;99.69
61506;BME280;47366;51.916;4.574;2022-11-23T02:08:29;99674.72;;;7.79;99.67
61506;BME280;47366;51.916;4.574;2022-11-23T02:10:56;99659.75;;;7.75;99.40
61506;BME280;47366;51.916;4.574;2022-11-23T02:13:23;99673.09;;;7.76;99.39
61506;BME280;47366;51.916;4.574;2022-11-23T02:15:50;99669.84;;;7.71;99.64
61506;BME280;47366;51.916;4.574;2022-11-23T02:18:21;99676.09;;;7.72;99.67
61506;BME280;47366;51.916;4.574;2022-11-23T02:20:47;99664.69;;;7.68;99.70
61506;BME280;47366;51.916;4.574;2022-11-23T02:26:18;99665.31;;;7.72;99.66
61506;BME280;47366;51.916;4.574;2022-11-23T02:28:49;99665.22;;;7.73;99.75
61506;BME280;47366;51.916;4.574;2022-11-23T02:31:16;99663.16;;;7.77;99.52
61506;BME280;47366;51.916;4.574;2022-11-23T02:33:41;99667.72;;;7.76;99.55
61506;BME280;47366;51.916;4.574;2022-11-23T02:39:13;99666.63;;;7.79;99.89
61506;BME280;47366;51.916;4.574;2022-11-23T02:41:44;99662.09;;;7.79;99.94
61506;BME280;47366;51.916;4.574;2022-11-23T02:46:58;99670.75;;;7.84;99.79
61506;BME280;47366;51.916;4.574;2022-11-23T02:49:24;99665.34;;;7.84;99.86
61506;BME280;47366;51.916;4.574;2022-11-23T02:51:50;99669.13;;;7.82;99.82
61506;BME280;47366;51.916;4.574;2022-11-23T02:54:16;99671.69;;;7.83;99.70
61506;BME280;47366;51.916;4.574;2022-11-23T02:56:41;99664.47;;;7.84;99.63
61506;BME280;47366;51.916;4.574;2022-11-23T02:59:07;99667.06;;;7.85;99.77
61506;BME280;47366;51.916;4.574;2022-11-23T03:01:32;99670.53;;;7.87;99.69
61506;BME280;47366;51.916;4.574;2022-11-23T03:03:57;99661.59;;;7.87;99.64
61506;BME280;47366;51.916;4.574;2022-11-23T03:06:23;99682.94;;;7.90;99.70
61506;BME280;47366;51.916;4.574;2022-11-23T03:08:48;99669.44;;;7.90;99.60
61506;BME280;47366;51.916;4.574;2022-11-23T03:11:13;99658.75;;;7.88;99.73
61506;BME280;47366;51.916;4.574;2022-11-23T03:13:39;99667.75;;;7.89;99.67
61506;BME280;47366;51.916;4.574;2022-11-23T03:16:04;99673.84;;;7.91;99.67
61506;BME280;47366;51.916;4.574;2022-11-23T03:18:30;99676.69;;;7.90;99.99
61506;BME280;47366;51.916;4.574;2022-11-23T03:21:01;99679.25;;;7.91;99.98
61506;BME280;47366;51.916;4.574;2022-11-23T03:23:27;99677.53;;;7.90;99.90
61506;BME280;47366;51.916;4.574;2022-11-23T03:25:58;99685.41;;;7.93;99.81
61506;BME280;47366;51.916;4.574;2022-11-23T03:28:23;99674.63;;;7.93;99.50
61506;BME280;47366;51.916;4.574;2022-11-23T03:30:49;99689.72;;;7.96;99.21
61506;BME280;47366;51.916;4.574;2022-11-23T03:33:14;99694.03;;;7.98;99.24
61506;BME280;47366;51.916;4.574;2022-11-23T03:35:40;99697.72;;;7.97;99.07
61506;BME280;47366;51.916;4.574;2022-11-23T03:38:05;99693.31;;;7.96;98.90
61506;BME280;47366;51.916;4.574;2022-11-23T03:40:30;99695.78;;;7.99;98.77
61506;BME280;47366;51.916;4.574;2022-11-23T03:42:56;99690.28;;;8.01;98.59
61506;BME280;47366;51.916;4.574;2022-11-23T03:45:21;99689.53;;;7.99;98.46
61506;BME280;47366;51.916;4.574;2022-11-23T03:47:47;99687.59;;;8.01;98.31
61506;BME280;47366;51.916;4.574;2022-11-23T03:50:12;99686.72;;;8.00;98.26
61506;BME280;47366;51.916;4.574;2022-11-23T03:52:37;99681.13;;;8.03;98.23
61506;BME280;47366;51.916;4.574;2022-11-23T03:55:03;99685.63;;;8.03;98.08
61506;BME280;47366;51.916;4.574;2022-11-23T03:57:28;99683.69;;;8.05;98.17
61506;BME280;47366;51.916;4.574;2022-11-23T03:59:54;99687.38;;;8.04;98.13
61506;BME280;47366;51.916;4.574;2022-11-23T04:02:19;99693.53;;;8.06;98.27
61506;BME280;47366;51.916;4.574;2022-11-23T04:04:44;99692.53;;;8.07;98.07
61506;BME280;47366;51.916;4.574;2022-11-23T04:07:09;99696.97;;;8.08;98.10
61506;BME280;47366;51.916;4.574;2022-11-23T04:09:35;99690.69;;;8.07;97.95
61506;BME280;47366;51.916;4.574;2022-11-23T04:12:00;99691.38;;;8.11;97.87
61506;BME280;47366;51.916;4.574;2022-11-23T04:14:25;99686.94;;;8.10;97.68
61506;BME280;47366;51.916;4.574;2022-11-23T04:16:51;99693.94;;;8.13;97.72
61506;BME280;47366;51.916;4.574;2022-11-23T04:19:16;99687.81;;;8.11;97.43
61506;BME280;47366;51.916;4.574;2022-11-23T04:21:41;99692.13;;;8.13;97.66
61506;BME280;47366;51.916;4.574;2022-11-23T04:24:07;99701.94;;;8.14;97.61
61506;BME280;47366;51.916;4.574;2022-11-23T04:26:32;99680.66;;;8.09;97.36
61506;BME280;47366;51.916;4.574;2022-11-23T04:28:57;99689.31;;;8.15;97.34
61506;BME280;47366;51.916;4.574;2022-11-23T04:31:23;99679.59;;;8.12;97.03
61506;BME280;47366;51.916;4.574;2022-11-23T04:33:48;99691.38;;;8.11;96.97
61506;BME280;47366;51.916;4.574;2022-11-23T04:36:13;99692.22;;;8.12;96.44
61506;BME280;47366;51.916;4.574;2022-11-23T04:38:39;99689.53;;;8.12;96.84
61506;BME280;47366;51.916;4.574;2022-11-23T04:41:04;99686.94;;;8.10;96.70
61506;BME280;47366;51.916;4.574;2022-11-23T04:43:29;99688.75;;;8.09;96.61
61506;BME280;47366;51.916;4.574;2022-11-23T04:45:56;99688.88;;;8.08;96.74
61506;BME280;47366;51.916;4.574;2022-11-23T04:48:21;99680.03;;;8.06;96.49
61506;BME280;47366;51.916;4.574;2022-11-23T04:50:47;99691.78;;;8.05;96.02
61506;BME280;47366;51.916;4.574;2022-11-23T04:53:12;99681.84;;;8.05;95.79
61506;BME280;47366;51.916;4.574;2022-11-23T04:55:38;99681.97;;;8.04;95.84
61506;BME280;47366;51.916;4.574;2022-11-23T04:58:03;99683.81;;;8.03;95.89
61506;BME280;47366;51.916;4.574;2022-11-23T05:00:28;99680.47;;;8.00;95.47
61506;BME280;47366;51.916;4.574;2022-11-23T05:02:54;99690.38;;;7.99;95.49
61506;BME280;47366;51.916;4.574;2022-11-23T05:05:19;99693.09;;;7.99;95.81
61506;BME280;47366;51.916;4.574;2022-11-23T05:07:44;99697.50;;;8.00;95.65
61506;BME280;47366;51.916;4.574;2022-11-23T05:10:10;99691.47;;;7.97;95.14
61506;BME280;47366;51.916;4.574;2022-11-23T05:12:36;99697.72;;;7.97;95.61
61506;BME280;47366;51.916;4.574;2022-11-23T05:15:02;99699.88;;;7.92;95.26
61506;BME280;47366;51.916;4.574;2022-11-23T05:17:28;99691.88;;;7.91;95.05
61506;BME280;47366;51.916;4.574;2022-11-23T05:19:53;99703.53;;;7.91;95.31
61506;BME280;47366;51.916;4.574;2022-11-23T05:22:20;99700.94;;;7.90;94.84
61506;BME280;47366;51.916;4.574;2022-11-23T05:24:45;99686.72;;;7.87;95.13
61506;BME280;47366;51.916;4.574;2022-11-23T05:27:11;99698.25;;;7.90;94.92
61506;BME280;47366;51.916;4.574;2022-11-23T05:29:36;99694.03;;;7.85;95.05
61506;BME280;47366;51.916;4.574;2022-11-23T05:32:02;99703.97;;;7.85;94.83
61506;BME280;47366;51.916;4.574;2022-11-23T05:34:27;99697.81;;;7.83;95.11
61506;BME280;47366;51.916;4.574;2022-11-23T05:36:52;99693.59;;;7.79;95.09
61506;BME280;47366;51.916;4.574;2022-11-23T05:39:18;99689.28;;;7.76;95.16
61506;BME280;47366;51.916;4.574;2022-11-23T05:41:43;99694.88;;;7.73;95.18
61506;BME280;47366;51.916;4.574;2022-11-23T05:44:08;99692.50;;;7.69;95.05
61506;BME280;47366;51.916;4.574;2022-11-23T05:46:34;99699.06;;;7.64;95.09
61506;BME280;47366;51.916;4.574;2022-11-23T05:48:59;99701.66;;;7.66;95.54
61506;BME280;47366;51.916;4.574;2022-11-23T05:51:24;99698.41;;;7.61;95.21
61506;BME280;47366;51.916;4.574;2022-11-23T05:53:49;99694.09;;;7.58;95.29
61506;BME280;47366;51.916;4.574;2022-11-23T05:56:15;99696.97;;;7.55;95.44
61506;BME280;47366;51.916;4.574;2022-11-23T05:58:40;99689.41;;;7.48;95.41
61506;BME280;47366;51.916;4.574;2022-11-23T06:01:05;99692.97;;;7.48;95.71
61506;BME280;47366;51.916;4.574;2022-11-23T06:03:31;99679.63;;;7.47;95.66
61506;BME280;47366;51.916;4.574;2022-11-23T06:05:56;99685.09;;;7.45;95.47
61506;BME280;47366;51.916;4.574;2022-11-23T06:08:21;99682.50;;;7.43;95.29
61506;BME280;47366;51.916;4.574;2022-11-23T06:10:47;99688.66;;;7.45;95.44
61506;BME280;47366;51.916;4.574;2022-11-23T06:13:12;99685.31;;;7.42;95.38
61506;BME280;47366;51.916;4.574;2022-11-23T06:15:37;99687.47;;;7.37;95.44
61506;BME280;47366;51.916;4.574;2022-11-23T06:18:03;99690.16;;;7.37;95.49
61506;BME280;47366;51.916;4.574;2022-11-23T06:20:28;99685.06;;;7.32;95.59
61506;BME280;47366;51.916;4.574;2022-11-23T06:22:54;99678.16;;;7.28;95.39
61506;BME280;47366;51.916;4.574;2022-11-23T06:25:21;99682.69;;;7.28;95.54
61506;BME280;47366;51.916;4.574;2022-11-23T06:27:57;99686.34;;;7.27;95.59
61506;BME280;47366;51.916;4.574;2022-11-23T06:30:23;99693.47;;;7.28;95.42
61506;BME280;47366;51.916;4.574;2022-11-23T06:32:48;99688.94;;;7.28;95.22
61506;BME280;47366;51.916;4.574;2022-11-23T06:35:14;99688.06;;;7.28;95.18
61506;BME280;47366;51.916;4.574;2022-11-23T06:37:39;99691.72;;;7.27;95.22
61506;BME280;47366;51.916;4.574;2022-11-23T06:40:05;99692.59;;;7.27;95.32
61506;BME280;47366;51.916;4.574;2022-11-23T06:42:30;99683.63;;;7.27;95.16
61506;BME280;47366;51.916;4.574;2022-11-23T06:44:55;99688.06;;;7.28;95.21
61506;BME280;47366;51.916;4.574;2022-11-23T06:47:21;99686.16;;;7.30;95.38
61506;BME280;47366;51.916;4.574;2022-11-23T06:49:46;99702.09;;;7.33;94.98
61506;BME280;47366;51.916;4.574;2022-11-23T06:52:11;99702.31;;;7.30;94.77
61506;BME280;47366;51.916;4.574;2022-11-23T06:54:38;99706.63;;;7.32;94.91
61506;BME280;47366;51.916;4.574;2022-11-23T06:57:06;99705.84;;;7.30;94.57
61506;BME280;47366;51.916;4.574;2022-11-23T06:59:32;99704.88;;;7.31;94.48
61506;BME280;47366;51.916;4.574;2022-11-23T07:01:57;99710.19;;;7.33;94.62
61506;BME280;47366;51.916;4.574;2022-11-23T07:04:22;99714.59;;;7.34;94.58
61506;BME280;47366;51.916;4.574;2022-11-23T07:06:48;99716.34;;;7.35;94.08
61506;BME280;47366;51.916;4.574;2022-11-23T07:09:13;99717.19;;;7.35;94.43
61506;BME280;47366;51.916;4.574;2022-11-23T07:11:38;99725.19;;;7.37;94.37
61506;BME280;47366;51.916;4.574;2022-11-23T07:14:03;99723.25;;;7.39;94.34
61506;BME280;47366;51.916;4.574;2022-11-23T07:16:29;99733.81;;;7.42;94.14
61506;BME280;47366;51.916;4.574;2022-11-23T07:18:54;99728.44;;;7.42;93.70
61506;BME280;47366;51.916;4.574;2022-11-23T07:21:20;99744.59;;;7.42;94.32
61506;BME280;47366;51.916;4.574;2022-11-23T07:23:45;99738.44;;;7.40;94.32
61506;BME280;47366;51.916;4.574;2022-11-23T07:26:10;99743.63;;;7.43;94.19
61506;BME280;47366;51.916;4.574;2022-11-23T07:28:36;99740.91;;;7.43;94.02
61506;BME280;47366;51.916;4.574;2022-11-23T07:31:01;99752.47;;;7.45;94.29
61506;BME280;47366;51.916;4.574;2022-11-23T07:33:26;99751.38;;;7.48;94.27
61506;BME280;47366;51.916;4.574;2022-11-23T07:35:51;99756.56;;;7.51;94.50
61506;BME280;47366;51.916;4.574;2022-11-23T07:38:17;99753.22;;;7.47;94.35
61506;BME280;47366;51.916;4.574;2022-11-23T07:40:42;99759.16;;;7.52;94.44
61506;BME280;47366;51.916;4.574;2022-11-23T07:43:09;99757.47;;;7.51;94.53
61506;BME280;47366;51.916;4.574;2022-11-23T07:45:34;99762.63;;;7.54;94.65
61506;BME280;47366;51.916;4.574;2022-11-23T07:48:03;99758.31;;;7.52;94.85
61506;BME280;47366;51.916;4.574;2022-11-23T07:50:29;99767.94;;;7.56;95.22
61506;BME280;47366;51.916;4.574;2022-11-23T07:52:55;99772.44;;;7.55;95.35
61506;BME280;47366;51.916;4.574;2022-11-23T07:55:20;99780.72;;;7.52;95.53
61506;BME280;47366;51.916;4.574;2022-11-23T07:57:45;99779.78;;;7.53;95.35
61506;BME280;47366;51.916;4.574;2022-11-23T08:00:11;99781.50;;;7.54;95.25
61506;BME280;47366;51.916;4.574;2022-11-23T08:02:37;99779.78;;;7.53;95.32
61506;BME280;47366;51.916;4.574;2022-11-23T08:05:02;99781.50;;;7.54;95.33
61506;BME280;47366;51.916;4.574;2022-11-23T08:07:28;99781.50;;;7.54;95.28
61506;BME280;47366;51.916;4.574;2022-11-23T08:09:53;99776.97;;;7.55;95.09
61506;BME280;47366;51.916;4.574;2022-11-23T08:12:19;99774.38;;;7.53;95.09
61506;BME280;47366;51.916;4.574;2022-11-23T08:14:44;99768.31;;;7.50;94.92
61506;BME280;47366;51.916;4.574;2022-11-23T08:17:09;99776.31;;;7.51;94.92
61506;BME280;47366;51.916;4.574;2022-11-23T08:19:35;99772.56;;;7.54;94.81
61506;BME280;47366;51.916;4.574;2022-11-23T08:22:00;99765.53;;;7.51;94.96
61506;BME280;47366;51.916;4.574;2022-11-23T08:24:25;99777.94;;;7.54;94.67
61506;BME280;47366;51.916;4.574;2022-11-23T08:26:50;99780.44;;;7.57;94.24
61506;BME280;47366;51.916;4.574;2022-11-23T08:29:16;99779.44;;;7.58;94.09
61506;BME280;47366;51.916;4.574;2022-11-23T08:31:41;99784.75;;;7.59;93.76
61506;BME280;47366;51.916;4.574;2022-11-23T08:34:07;99779.91;;;7.64;93.69
61506;BME280;47366;51.916;4.574;2022-11-23T08:36:33;99787.59;;;7.71;93.18
61506;BME280;47366;51.916;4.574;2022-11-23T08:38:58;99790.63;;;7.79;93.24
61506;BME280;47366;51.916;4.574;2022-11-23T08:41:23;99777.81;;;7.82;92.90
61506;BME280;47366;51.916;4.574;2022-11-23T08:43:50;99780.59;;;7.81;91.93
61506;BME280;47366;51.916;4.574;2022-11-23T08:46:15;99783.66;;;7.89;91.90
61506;BME280;47366;51.916;4.574;2022-11-23T08:48:41;99774.81;;;7.87;91.56
61506;BME280;47366;51.916;4.574;2022-11-23T08:51:07;99788.94;;;7.91;91.31
61506;BME280;47366;51.916;4.574;2022-11-23T08:53:32;99774.06;;;7.85;90.99
61506;BME280;47366;51.916;4.574;2022-11-23T08:56:02;99772.13;;;7.87;91.01
61506;BME280;47366;51.916;4.574;2022-11-23T08:58:28;99767.69;;;7.86;90.19
61506;BME280;47366;51.916;4.574;2022-11-23T09:00:54;99767.81;;;7.84;90.47
61506;BME280;47366;51.916;4.574;2022-11-23T09:03:19;99769.63;;;7.84;89.47
61506;BME280;47366;51.916;4.574;2022-11-23T09:05:45;99764.03;;;7.87;89.80
61506;BME280;47366;51.916;4.574;2022-11-23T09:08:11;99756.13;;;7.84;87.68
61506;BME280;47366;51.916;4.574;2022-11-23T09:10:36;99750.97;;;7.81;87.32
61506;BME280;47366;51.916;4.574;2022-11-23T09:13:02;99739.22;;;7.82;87.67
61506;BME280;47366;51.916;4.574;2022-11-23T09:15:28;99731.22;;;7.80;86.80
61506;BME280;47366;51.916;4.574;2022-11-23T09:17:53;99723.59;;;7.87;88.14
61506;BME280;47366;51.916;4.574;2022-11-23T09:20:19;99708.91;;;7.91;88.37
61506;BME280;47366;51.916;4.574;2022-11-23T09:22:52;99703.41;;;7.93;87.34
61506;BME280;47366;51.916;4.574;2022-11-23T09:25:18;99692.53;;;7.94;88.45
61506;BME280;47366;51.916;4.574;2022-11-23T09:27:44;99701.25;;;7.98;87.87
61506;BME280;47366;51.916;4.574;2022-11-23T09:30:10;99690.38;;;7.99;87.45
61506;BME280;47366;51.916;4.574;2022-11-23T09:32:35;99697.31;;;8.03;86.71
61506;BME280;47366;51.916;4.574;2022-11-23T09:35:00;99697.31;;;8.03;86.78
61506;BME280;47366;51.916;4.574;2022-11-23T09:37:26;99695.13;;;8.08;87.05
61506;BME280;47366;51.916;4.574;2022-11-23T09:39:51;99693.84;;;8.14;87.30
61506;BME280;47366;51.916;4.574;2022-11-23T09:51:15;99706.03;;;8.20;85.64
61506;BME280;47366;51.916;4.574;2022-11-23T09:53:51;99706.59;;;8.25;85.94
61506;BME280;47366;51.916;4.574;2022-11-23T09:56:30;99705.69;;;8.24;85.05
61506;BME280;47366;51.916;4.574;2022-11-23T09:58:59;99719.41;;;8.21;85.21
61506;BME280;47366;51.916;4.574;2022-11-23T10:01:26;99710.88;;;8.15;85.82
61506;BME280;47366;51.916;4.574;2022-11-23T10:03:52;99721.34;;;8.06;85.31
61506;BME280;47366;51.916;4.574;2022-11-23T10:06:26;99719.97;;;8.01;85.71
61506;BME280;47366;51.916;4.574;2022-11-23T10:14:22;99731.94;;;7.70;85.95
61506;BME280;47366;51.916;4.574;2022-11-23T10:22:27;99717.50;;;7.71;86.41
61506;BME280;47366;51.916;4.574;2022-11-23T10:24:54;99724.06;;;7.66;87.06
61506;BME280;47366;51.916;4.574;2022-11-23T10:27:22;99730.84;;;7.59;86.72
61506;BME280;47366;51.916;4.574;2022-11-23T10:29:48;99733.22;;;7.51;86.54
61506;BME280;47366;51.916;4.574;2022-11-23T10:35:09;99723.03;;;7.42;87.25
61506;BME280;47366;51.916;4.574;2022-11-23T10:37:37;99723.69;;;7.45;87.43
61506;BME280;47366;51.916;4.574;2022-11-23T10:42:41;99713.66;;;7.48;86.88
61506;BME280;47366;51.916;4.574;2022-11-23T10:45:22;99714.53;;;7.48;86.54
61506;BME280;47366;51.916;4.574;2022-11-23T10:50:28;99699.97;;;7.51;87.25
61506;BME280;47366;51.916;4.574;2022-11-23T10:52:56;99690.72;;;7.55;86.68
61506;BME280;47366;51.916;4.574;2022-11-23T10:55:27;99683.31;;;7.58;86.08
61506;BME280;47366;51.916;4.574;2022-11-23T10:57:53;99668.16;;;7.70;85.92
61506;BME280;47366;51.916;4.574;2022-11-23T11:00:20;99663.97;;;7.92;86.23
61506;BME280;47366;51.916;4.574;2022-11-23T11:02:52;99644.31;;;8.02;85.11
61506;BME280;47366;51.916;4.574;2022-11-23T11:07:50;99643.56;;;8.13;83.93
61506;BME280;47366;51.916;4.574;2022-11-23T11:12:59;99638.16;;;8.26;84.13
61506;BME280;47366;51.916;4.574;2022-11-23T11:15:25;99640.44;;;8.32;82.97
61506;BME280;47366;51.916;4.574;2022-11-23T11:17:58;99630.03;;;8.39;83.13
61506;BME280;47366;51.916;4.574;2022-11-23T11:22:52;99618.41;;;8.51;83.23
61506;BME280;47366;51.916;4.574;2022-11-23T11:25:28;99621.91;;;8.64;83.36
61506;BME280;47366;51.916;4.574;2022-11-23T11:27:57;99619.13;;;8.66;83.28
61506;BME280;47366;51.916;4.574;2022-11-23T11:30:25;99610.25;;;8.64;82.98
61506;BME280;47366;51.916;4.574;2022-11-23T11:35:42;99621.16;;;8.62;82.41
61506;BME280;47366;51.916;4.574;2022-11-23T11:38:20;99607.75;;;8.74;83.24
61506;BME280;47366;51.916;4.574;2022-11-23T11:40:50;99597.59;;;8.77;82.78
61506;BME280;47366;51.916;4.574;2022-11-23T11:43:32;99599.59;;;8.86;82.61
61506;BME280;47366;51.916;4.574;2022-11-23T11:46:03;99595.41;;;8.82;82.26
61506;BME280;47366;51.916;4.574;2022-11-23T11:48:39;99593.66;;;8.81;82.45
61506;BME280;47366;51.916;4.574;2022-11-23T11:51:23;99593.47;;;8.84;82.46
61506;BME280;47366;51.916;4.574;2022-11-23T11:54:05;99589.94;;;8.95;82.22
61506;BME280;47366;51.916;4.574;2022-11-23T11:56:38;99589.16;;;9.06;81.89
61506;BME280;47366;51.916;4.574;2022-11-23T11:59:13;99599.31;;;9.02;81.96
61506;BME280;47366;51.916;4.574;2022-11-23T12:01:47;99584.19;;;9.00;81.72
61506;BME280;47366;51.916;4.574;2022-11-23T12:04:36;99577.78;;;8.89;81.30
61506;BME280;47366;51.916;4.574;2022-11-23T12:07:11;99569.16;;;8.84;81.77
61506;BME280;47366;51.916;4.574;2022-11-23T12:09:41;99573.69;;;8.84;82.70
61506;BME280;47366;51.916;4.574;2022-11-23T12:12:15;99567.66;;;8.80;82.88
61506;BME280;47366;51.916;4.574;2022-11-23T12:14:41;99579.41;;;8.79;82.47
61506;BME280;47366;51.916;4.574;2022-11-23T12:20:19;99562.94;;;8.71;82.61
61506;BME280;47366;51.916;4.574;2022-11-23T12:25:34;99560.88;;;8.75;83.24
61506;BME280;47366;51.916;4.574;2022-11-23T12:46:49;99564.66;;;8.72;83.14
61506;BME280;47366;51.916;4.574;2022-11-23T13:05:52;99587.66;;;8.28;88.75
61506;BME280;47366;51.916;4.574;2022-11-23T13:11:14;99594.91;;;8.15;90.39
61506;BME280;47366;51.916;4.574;2022-11-23T13:16:36;99605.28;;;8.08;91.68
61506;BME280;47366;51.916;4.574;2022-11-23T13:21:54;99596.75;;;8.01;92.92
61506;BME280;47366;51.916;4.574;2022-11-23T13:40:23;99628.03;;;8.04;93.48
61506;BME280;47366;51.916;4.574;2022-11-23T13:42:50;99616.50;;;8.02;93.75
61506;BME280;47366;51.916;4.574;2022-11-23T13:50:28;99621.22;;;7.98;95.13
61506;BME280;47366;51.916;4.574;2022-11-23T13:52:54;99617.81;;;7.96;94.79
61506;BME280;47366;51.916;4.574;2022-11-23T13:55:22;99633.84;;;7.98;94.72
61506;BME280;47366;51.916;4.574;2022-11-23T14:06:44;99643.03;;;7.95;95.70
61506;BME280;47366;51.916;4.574;2022-11-23T14:14:22;99599.13;;;7.93;96.17
61506;BME280;47366;51.916;4.574;2022-11-23T14:17:22;99610.66;;;7.95;96.79
61506;BME280;47366;51.916;4.574;2022-11-23T14:22:52;99639.47;;;7.95;96.35
61506;BME280;47366;51.916;4.574;2022-11-23T14:25:34;99638.81;;;7.91;96.86
61506;BME280;47366;51.916;4.574;2022-11-23T14:33:54;99645.28;;;7.88;97.62
61506;BME280;47366;51.916;4.574;2022-11-23T14:36:38;99633.78;;;7.86;97.56
61506;BME280;47366;51.916;4.574;2022-11-23T14:39:30;99647.03;;;7.90;98.35
61506;BME280;47366;51.916;4.574;2022-11-23T14:42:02;99651.44;;;7.91;98.41
61506;BME280;47366;51.916;4.574;2022-11-23T14:44:29;99652.41;;;7.90;98.15
61506;BME280;47366;51.916;4.574;2022-11-23T14:47:04;99652.28;;;7.91;98.01
61506;BME280;47366;51.916;4.574;2022-11-23T14:49:30;99656.72;;;7.92;98.41
61506;BME280;47366;51.916;4.574;2022-11-23T14:51:56;99663.84;;;7.93;97.97
61506;BME280;47366;51.916;4.574;2022-11-23T14:54:23;99676.25;;;7.96;98.10
61506;BME280;47366;51.916;4.574;2022-11-23T14:56:51;99674.63;;;7.93;98.41
61506;BME280;47366;51.916;4.574;2022-11-23T14:59:22;99656.63;;;7.94;98.96
61506;BME280;47366;51.916;4.574;2022-11-23T15:01:52;99651.13;;;7.95;98.23
61506;BME280;47366;51.916;4.574;2022-11-23T15:04:30;99653.81;;;7.95;98.70
61506;BME280;47366;51.916;4.574;2022-11-23T15:07:23;99662.75;;;7.96;98.94
61506;BME280;47366;51.916;4.574;2022-11-23T15:12:24;99668.28;;;7.94;99.14
61506;BME280;47366;51.916;4.574;2022-11-23T15:14:51;99667.50;;;7.92;99.04
61506;BME280;47366;51.916;4.574;2022-11-23T15:17:20;99673.75;;;7.93;98.48
61506;BME280;47366;51.916;4.574;2022-11-23T15:19:55;99665.59;;;7.94;98.73
61506;BME280;47366;51.916;4.574;2022-11-23T15:22:24;99677.22;;;7.95;98.65
61506;BME280;47366;51.916;4.574;2022-11-23T15:24:51;99671.16;;;7.91;98.90
61506;BME280;47366;51.916;4.574;2022-11-23T15:27:27;99658.56;;;7.92;99.44
61506;BME280;47366;51.916;4.574;2022-11-23T15:29:55;99673.84;;;7.91;98.92
61506;BME280;47366;51.916;4.574;2022-11-23T15:32:29;99675.69;;;7.91;99.15
61506;BME280;47366;51.916;4.574;2022-11-23T15:34:57;99686.38;;;7.92;99.84